sensor_id;sensor_type;location;lat;lon;timestamp;pressure;altitude;pressure_sealevel;temperature;humidity
73910;BME280;62245;48.070;7.874;2024-02-04T00:01:14;100570.59;;;6.88;89.95
73910;BME280;62245;48.070;7.874;2024-02-04T00:03:39;100567.84;;;6.79;89.92
73910;BME280;62245;48.070;7.874;2024-02-04T00:06:05;100557.09;;;6.81;89.81
73910;BME280;62245;48.070;7.874;2024-02-04T00:08:31;100546.16;;;6.84;89.37
73910;BME280;62245;48.070;7.874;2024-02-04T00:10:57;100555.03;;;6.93;89.30
73910;BME280;62245;48.070;7.874;2024-02-04T00:13:22;100536.47;;;6.93;89.11
73910;BME280;62245;48.070;7.874;2024-02-04T00:15:47;100525.25;;;6.81;89.77
73910;BME280;62245;48.070;7.874;2024-02-04T00:18:12;100500.47;;;6.72;89.77
73910;BME280;62245;48.070;7.874;2024-02-04T00:20:38;100526.19;;;6.90;89.57
73910;BME280;62245;48.070;7.874;2024-02-04T00:23:03;100526.25;;;6.98;89.25
73910;BME280;62245;48.070;7.874;2024-02-04T00:25:28;100509.78;;;6.94;88.86
73910;BME280;62245;48.070;7.874;2024-02-04T00:27:54;100508.97;;;6.94;89.16
73910;BME280;62245;48.070;7.874;2024-02-04T00:30:20;100512.91;;;6.90;89.55
73910;BME280;62245;48.070;7.874;2024-02-04T00:32:45;100505.88;;;6.98;89.46
73910;BME280;62245;48.070;7.874;2024-02-04T00:35:11;100506.03;;;6.97;89.07
73910;BME280;62245;48.070;7.874;2024-02-04T00:37:36;100509.50;;;6.97;89.30
73910;BME280;62245;48.070;7.874;2024-02-04T00:40:01;100505.03;;;6.98;89.42
73910;BME280;62245;48.070;7.874;2024-02-04T00:42:27;100506.38;;;7.02;89.30
73910;BME280;62245;48.070;7.874;2024-02-04T00:44:52;100495.13;;;7.00;88.82
73910;BME280;62245;48.070;7.874;2024-02-04T00:47:17;100487.81;;;7.02;88.75
73910;BME280;62245;48.070;7.874;2024-02-04T00:49:43;100504.44;;;7.04;88.87
73910;BME280;62245;48.070;7.874;2024-02-04T00:52:08;100500.66;;;7.06;88.43
73910;BME280;62245;48.070;7.874;2024-02-04T00:54:33;100492.47;;;7.00;88.76
73910;BME280;62245;48.070;7.874;2024-02-04T00:56:59;100498.00;;;7.06;88.65
73910;BME280;62245;48.070;7.874;2024-02-04T00:59:25;100487.72;;;6.94;88.86
73910;BME280;62245;48.070;7.874;2024-02-04T01:01:50;100487.72;;;6.94;88.81
73910;BME280;62245;48.070;7.874;2024-02-04T01:04:15;100465.09;;;6.99;88.68
73910;BME280;62245;48.070;7.874;2024-02-04T01:06:41;100443.69;;;7.01;88.27
73910;BME280;62245;48.070;7.874;2024-02-04T01:09:06;100439.13;;;6.93;88.76
73910;BME280;62245;48.070;7.874;2024-02-04T01:11:33;100456.94;;;7.01;88.31
73910;BME280;62245;48.070;7.874;2024-02-04T01:13:59;100452.47;;;7.01;88.00
73910;BME280;62245;48.070;7.874;2024-02-04T01:16:24;100449.00;;;7.01;88.37
73910;BME280;62245;48.070;7.874;2024-02-04T01:18:49;100444.38;;;7.03;88.11
73910;BME280;62245;48.070;7.874;2024-02-04T01:21:14;100445.53;;;7.00;88.24
73910;BME280;62245;48.070;7.874;2024-02-04T01:23:40;100440.22;;;7.00;88.01
73910;BME280;62245;48.070;7.874;2024-02-04T01:26:05;100421.47;;;7.02;87.91
73910;BME280;62245;48.070;7.874;2024-02-04T01:28:30;100422.63;;;6.99;88.23
73910;BME280;62245;48.070;7.874;2024-02-04T01:30:56;100433.91;;;7.01;87.89
73910;BME280;62245;48.070;7.874;2024-02-04T01:33:21;100451.97;;;6.98;88.86
73910;BME280;62245;48.070;7.874;2024-02-04T01:35:46;100448.91;;;6.93;88.60
73910;BME280;62245;48.070;7.874;2024-02-04T01:38:11;100459.59;;;7.01;88.67
73910;BME280;62245;48.070;7.874;2024-02-04T01:40:37;100465.59;;;7.03;88.65
73910;BME280;62245;48.070;7.874;2024-02-04T01:43:02;100466.75;;;7.00;88.78
73910;BME280;62245;48.070;7.874;2024-02-04T01:45:27;100468.25;;;7.03;88.52
73910;BME280;62245;48.070;7.874;2024-02-04T01:47:53;100462.03;;;7.12;88.35
73910;BME280;62245;48.070;7.874;2024-02-04T01:50:19;100448.25;;;7.08;88.29
73910;BME280;62245;48.070;7.874;2024-02-04T01:52:45;100450.16;;;7.16;88.00
73910;BME280;62245;48.070;7.874;2024-02-04T01:55:11;100447.94;;;7.11;88.07
73910;BME280;62245;48.070;7.874;2024-02-04T01:57:36;100455.06;;;7.11;88.26
73910;BME280;62245;48.070;7.874;2024-02-04T02:00:03;100450.66;;;7.02;88.88
73910;BME280;62245;48.070;7.874;2024-02-04T02:02:30;100459.84;;;7.07;88.39
73910;BME280;62245;48.070;7.874;2024-02-04T02:04:56;100452.72;;;7.08;88.24
73910;BME280;62245;48.070;7.874;2024-02-04T02:07:22;100464.69;;;7.12;88.28
73910;BME280;62245;48.070;7.874;2024-02-04T02:09:47;100457.84;;;7.09;87.79
73910;BME280;62245;48.070;7.874;2024-02-04T02:12:24;100459.72;;;7.09;88.07
73910;BME280;62245;48.070;7.874;2024-02-04T02:14:58;100458.94;;;6.99;88.48
73910;BME280;62245;48.070;7.874;2024-02-04T02:18:14;100456.28;;;6.99;87.87
73910;BME280;62245;48.070;7.874;2024-02-04T02:20:20;100450.59;;;6.94;88.10
73910;BME280;62245;48.070;7.874;2024-02-04T02:22:50;100444.84;;;6.98;87.98
73910;BME280;62245;48.070;7.874;2024-02-04T02:25:20;100447.44;;;6.90;88.30
73910;BME280;62245;48.070;7.874;2024-02-04T02:27:47;100447.44;;;6.90;88.05
73910;BME280;62245;48.070;7.874;2024-02-04T02:30:13;100449.81;;;6.83;88.48
73910;BME280;62245;48.070;7.874;2024-02-04T02:32:39;100449.25;;;6.90;87.98
73910;BME280;62245;48.070;7.874;2024-02-04T02:35:04;100459.72;;;6.91;87.99
73910;BME280;62245;48.070;7.874;2024-02-04T02:37:36;100472.66;;;6.94;88.35
73910;BME280;62245;48.070;7.874;2024-02-04T02:40:14;100476.00;;;6.96;88.08
73910;BME280;62245;48.070;7.874;2024-02-04T02:42:43;100471.44;;;6.89;88.78
73910;BME280;62245;48.070;7.874;2024-02-04T02:45:09;100486.06;;;6.93;88.29
73910;BME280;62245;48.070;7.874;2024-02-04T02:47:38;100481.84;;;7.00;88.33
73910;BME280;62245;48.070;7.874;2024-02-04T02:50:05;100486.75;;;6.95;88.21
73910;BME280;62245;48.070;7.874;2024-02-04T02:52:31;100479.19;;;7.00;88.53
73910;BME280;62245;48.070;7.874;2024-02-04T02:54:56;100473.56;;;7.03;88.11
73910;BME280;62245;48.070;7.874;2024-02-04T02:57:21;100481.00;;;6.99;88.58
73910;BME280;62245;48.070;7.874;2024-02-04T02:59:46;100482.13;;;6.97;88.64
73910;BME280;62245;48.070;7.874;2024-02-04T03:02:12;100492.47;;;7.00;88.78
73910;BME280;62245;48.070;7.874;2024-02-04T03:04:39;100501.69;;;6.96;88.92
73910;BME280;62245;48.070;7.874;2024-02-04T03:07:04;100499.41;;;7.01;88.60
73910;BME280;62245;48.070;7.874;2024-02-04T03:09:30;100503.72;;;7.02;88.44
73910;BME280;62245;48.070;7.874;2024-02-04T03:11:55;100498.66;;;6.91;88.79
73910;BME280;62245;48.070;7.874;2024-02-04T03:14:21;100501.31;;;6.91;89.15
73910;BME280;62245;48.070;7.874;2024-02-04T03:16:46;100498.41;;;6.84;89.19
73910;BME280;62245;48.070;7.874;2024-02-04T03:19:12;100509.28;;;6.91;89.22
73910;BME280;62245;48.070;7.874;2024-02-04T03:21:37;100499.25;;;6.85;89.14
73910;BME280;62245;48.070;7.874;2024-02-04T03:24:02;100513.50;;;6.83;89.58
73910;BME280;62245;48.070;7.874;2024-02-04T03:26:28;100511.16;;;6.80;89.79
73910;BME280;62245;48.070;7.874;2024-02-04T03:28:53;100533.44;;;6.88;89.65
73910;BME280;62245;48.070;7.874;2024-02-04T03:31:22;100535.97;;;6.89;89.59
73910;BME280;62245;48.070;7.874;2024-02-04T03:33:48;100528.06;;;6.79;89.72
73910;BME280;62245;48.070;7.874;2024-02-04T03:36:22;100541.69;;;6.85;89.48
73910;BME280;62245;48.070;7.874;2024-02-04T03:38:51;100548.16;;;6.82;89.64
73910;BME280;62245;48.070;7.874;2024-02-04T03:41:17;100537.78;;;6.89;89.40
73910;BME280;62245;48.070;7.874;2024-02-04T03:43:42;100539.44;;;6.90;89.20
73910;BME280;62245;48.070;7.874;2024-02-04T03:46:07;100543.59;;;6.74;90.06
73910;BME280;62245;48.070;7.874;2024-02-04T03:48:33;100537.59;;;6.72;90.15
73910;BME280;62245;48.070;7.874;2024-02-04T03:50:59;100530.09;;;6.58;90.89
73910;BME280;62245;48.070;7.874;2024-02-04T03:53:24;100530.44;;;6.55;91.29
73910;BME280;62245;48.070;7.874;2024-02-04T03:55:50;100512.44;;;6.49;91.63
73910;BME280;62245;48.070;7.874;2024-02-04T03:58:15;100512.97;;;6.53;91.82
73910;BME280;62245;48.070;7.874;2024-02-04T04:00:41;100513.81;;;6.53;91.57
73910;BME280;62245;48.070;7.874;2024-02-04T04:03:06;100508.22;;;6.56;91.39
73910;BME280;62245;48.070;7.874;2024-02-04T04:05:31;100495.53;;;6.50;91.66
73910;BME280;62245;48.070;7.874;2024-02-04T04:07:56;100491.06;;;6.51;91.91
73910;BME280;62245;48.070;7.874;2024-02-04T04:10:22;100470.31;;;6.46;92.19
73910;BME280;62245;48.070;7.874;2024-02-04T04:12:47;100479.94;;;6.47;92.21
73910;BME280;62245;48.070;7.874;2024-02-04T04:15:12;100481.31;;;6.51;92.32
73910;BME280;62245;48.070;7.874;2024-02-04T04:17:37;100473.34;;;6.51;92.00
73910;BME280;62245;48.070;7.874;2024-02-04T04:20:05;100471.53;;;6.52;91.75
73910;BME280;62245;48.070;7.874;2024-02-04T04:22:31;100470.56;;;6.53;91.56
73910;BME280;62245;48.070;7.874;2024-02-04T04:24:56;100460.66;;;6.55;91.12
73910;BME280;62245;48.070;7.874;2024-02-04T04:27:21;100450.56;;;6.58;90.96
73910;BME280;62245;48.070;7.874;2024-02-04T04:29:46;100457.53;;;6.59;90.88
73910;BME280;62245;48.070;7.874;2024-02-04T04:32:12;100457.69;;;6.58;90.66
73910;BME280;62245;48.070;7.874;2024-02-04T04:34:37;100463.53;;;6.61;90.57
73910;BME280;62245;48.070;7.874;2024-02-04T04:37:02;100447.63;;;6.61;89.86
73910;BME280;62245;48.070;7.874;2024-02-04T04:39:27;100454.75;;;6.61;90.68
73910;BME280;62245;48.070;7.874;2024-02-04T04:41:53;100452.47;;;6.48;90.34
73910;BME280;62245;48.070;7.874;2024-02-04T04:44:18;100450.31;;;6.52;90.17
73910;BME280;62245;48.070;7.874;2024-02-04T04:46:43;100452.16;;;6.51;90.63
73910;BME280;62245;48.070;7.874;2024-02-04T04:49:09;100460.94;;;6.52;90.84
73910;BME280;62245;48.070;7.874;2024-02-04T04:51:35;100462.59;;;6.53;91.13
73910;BME280;62245;48.070;7.874;2024-02-04T04:54:00;100452.84;;;6.53;91.17
73910;BME280;62245;48.070;7.874;2024-02-04T04:56:25;100450.88;;;6.55;90.89
73910;BME280;62245;48.070;7.874;2024-02-04T04:58:50;100444.03;;;6.53;91.27
73910;BME280;62245;48.070;7.874;2024-02-04T05:01:16;100445.84;;;6.52;91.12
73910;BME280;62245;48.070;7.874;2024-02-04T05:03:41;100451.44;;;6.49;91.25
73910;BME280;62245;48.070;7.874;2024-02-04T05:06:07;100457.16;;;6.54;91.33
73910;BME280;62245;48.070;7.874;2024-02-04T05:08:32;100468.38;;;6.48;91.56
73910;BME280;62245;48.070;7.874;2024-02-04T05:10:57;100457.13;;;6.36;91.97
73910;BME280;62245;48.070;7.874;2024-02-04T05:13:23;100457.22;;;6.44;91.80
73910;BME280;62245;48.070;7.874;2024-02-04T05:15:48;100452.06;;;6.43;92.01
73910;BME280;62245;48.070;7.874;2024-02-04T05:18:13;100436.06;;;6.35;92.09
73910;BME280;62245;48.070;7.874;2024-02-04T05:20:38;100429.78;;;6.36;92.28
73910;BME280;62245;48.070;7.874;2024-02-04T05:23:04;100439.00;;;6.32;92.30
73910;BME280;62245;48.070;7.874;2024-02-04T05:25:29;100443.31;;;6.33;92.05
73910;BME280;62245;48.070;7.874;2024-02-04T05:27:54;100439.81;;;6.32;91.83
73910;BME280;62245;48.070;7.874;2024-02-04T05:30:19;100434.16;;;6.27;92.25
73910;BME280;62245;48.070;7.874;2024-02-04T05:32:45;100431.78;;;6.24;92.14
73910;BME280;62245;48.070;7.874;2024-02-04T05:35:10;100428.91;;;6.18;92.13
73910;BME280;62245;48.070;7.874;2024-02-04T05:37:36;100428.16;;;6.25;92.06
73910;BME280;62245;48.070;7.874;2024-02-04T05:40:02;100436.56;;;6.21;92.14
73910;BME280;62245;48.070;7.874;2024-02-04T05:42:27;100440.22;;;6.10;92.50
73910;BME280;62245;48.070;7.874;2024-02-04T05:44:52;100440.94;;;6.12;92.80
73910;BME280;62245;48.070;7.874;2024-02-04T05:47:18;100462.13;;;6.12;92.79
73910;BME280;62245;48.070;7.874;2024-02-04T05:49:44;100470.94;;;6.03;93.00
73910;BME280;62245;48.070;7.874;2024-02-04T05:52:09;100470.50;;;6.07;92.90
73910;BME280;62245;48.070;7.874;2024-02-04T05:54:38;100465.09;;;5.99;93.03
73910;BME280;62245;48.070;7.874;2024-02-04T05:57:06;100466.72;;;6.10;92.93
73910;BME280;62245;48.070;7.874;2024-02-04T05:59:33;100480.53;;;6.14;92.45
73910;BME280;62245;48.070;7.874;2024-02-04T06:01:58;100474.91;;;6.17;92.27
73910;BME280;62245;48.070;7.874;2024-02-04T06:04:23;100478.97;;;6.21;91.93
73910;BME280;62245;48.070;7.874;2024-02-04T06:06:49;100486.91;;;6.21;92.01
73910;BME280;62245;48.070;7.874;2024-02-04T06:09:14;100487.56;;;6.23;90.93
73910;BME280;62245;48.070;7.874;2024-02-04T06:11:39;100496.22;;;6.25;91.59
73910;BME280;62245;48.070;7.874;2024-02-04T06:14:04;100509.59;;;6.33;91.06
73910;BME280;62245;48.070;7.874;2024-02-04T06:16:30;100522.09;;;6.40;90.67
73910;BME280;62245;48.070;7.874;2024-02-04T06:18:55;100515.97;;;6.40;90.42
73910;BME280;62245;48.070;7.874;2024-02-04T06:21:22;100520.56;;;6.48;90.33
73910;BME280;62245;48.070;7.874;2024-02-04T06:23:47;100507.72;;;6.43;90.21
73910;BME280;62245;48.070;7.874;2024-02-04T06:26:13;100512.75;;;6.46;90.21
73910;BME280;62245;48.070;7.874;2024-02-04T06:28:38;100524.03;;;6.48;89.95
73910;BME280;62245;48.070;7.874;2024-02-04T06:31:03;100535.50;;;6.49;89.90
73910;BME280;62245;48.070;7.874;2024-02-04T06:33:28;100532.56;;;6.42;89.95
73910;BME280;62245;48.070;7.874;2024-02-04T06:35:54;100549.16;;;6.44;89.88
73910;BME280;62245;48.070;7.874;2024-02-04T06:38:19;100549.09;;;6.26;90.63
73910;BME280;62245;48.070;7.874;2024-02-04T06:40:44;100546.78;;;6.14;91.21
73910;BME280;62245;48.070;7.874;2024-02-04T06:43:10;100551.19;;;6.23;90.66
73910;BME280;62245;48.070;7.874;2024-02-04T06:45:35;100542.16;;;6.16;90.75
73910;BME280;62245;48.070;7.874;2024-02-04T06:48:00;100564.03;;;6.18;91.02
73910;BME280;62245;48.070;7.874;2024-02-04T06:50:25;100558.47;;;6.21;90.86
73910;BME280;62245;48.070;7.874;2024-02-04T06:52:51;100558.59;;;6.19;91.15
73910;BME280;62245;48.070;7.874;2024-02-04T06:55:16;100558.19;;;6.14;91.52
73910;BME280;62245;48.070;7.874;2024-02-04T06:57:41;100539.22;;;6.19;91.50
73910;BME280;62245;48.070;7.874;2024-02-04T07:00:07;100541.16;;;6.17;91.22
73910;BME280;62245;48.070;7.874;2024-02-04T07:02:36;100530.28;;;6.20;91.04
73910;BME280;62245;48.070;7.874;2024-02-04T07:05:02;100529.97;;;6.23;90.69
73910;BME280;62245;48.070;7.874;2024-02-04T07:07:27;100515.78;;;6.14;91.01
73910;BME280;62245;48.070;7.874;2024-02-04T07:09:52;100529.75;;;6.16;91.56
73910;BME280;62245;48.070;7.874;2024-02-04T07:12:17;100528.03;;;6.25;91.54
73910;BME280;62245;48.070;7.874;2024-02-04T07:14:43;100523.44;;;6.27;91.19
73910;BME280;62245;48.070;7.874;2024-02-04T07:17:08;100521.75;;;6.26;91.36
73910;BME280;62245;48.070;7.874;2024-02-04T07:19:33;100514.38;;;6.20;91.40
73910;BME280;62245;48.070;7.874;2024-02-04T07:22:00;100510.44;;;6.24;91.32
73910;BME280;62245;48.070;7.874;2024-02-04T07:24:26;100516.34;;;6.18;91.25
73910;BME280;62245;48.070;7.874;2024-02-04T07:26:51;100523.56;;;6.25;91.20
73910;BME280;62245;48.070;7.874;2024-02-04T07:29:16;100508.25;;;6.19;90.92
73910;BME280;62245;48.070;7.874;2024-02-04T07:31:42;100519.53;;;6.31;90.98
73910;BME280;62245;48.070;7.874;2024-02-04T07:34:07;100508.75;;;6.32;90.71
73910;BME280;62245;48.070;7.874;2024-02-04T07:36:32;100502.19;;;6.36;90.37
73910;BME280;62245;48.070;7.874;2024-02-04T07:38:58;100502.09;;;6.28;90.63
73910;BME280;62245;48.070;7.874;2024-02-04T07:41:24;100494.03;;;6.20;91.03
73910;BME280;62245;48.070;7.874;2024-02-04T07:43:49;100485.34;;;6.28;90.59
73910;BME280;62245;48.070;7.874;2024-02-04T07:46:15;100485.88;;;6.31;90.12
73910;BME280;62245;48.070;7.874;2024-02-04T07:48:40;100490.22;;;6.23;90.23
73910;BME280;62245;48.070;7.874;2024-02-04T07:51:07;100485.63;;;6.25;90.05
73910;BME280;62245;48.070;7.874;2024-02-04T07:53:33;100505.66;;;6.37;90.14
73910;BME280;62245;48.070;7.874;2024-02-04T07:55:58;100489.06;;;6.35;89.80
73910;BME280;62245;48.070;7.874;2024-02-04T07:58:23;100488.47;;;6.41;89.79
73910;BME280;62245;48.070;7.874;2024-02-04T08:00:49;100478.84;;;6.40;89.99
73910;BME280;62245;48.070;7.874;2024-02-04T08:03:14;100470.47;;;6.44;89.52
73910;BME280;62245;48.070;7.874;2024-02-04T08:05:39;100457.75;;;6.48;89.37
73910;BME280;62245;48.070;7.874;2024-02-04T08:08:05;100458.22;;;6.61;89.61
73910;BME280;62245;48.070;7.874;2024-02-04T08:10:30;100471.97;;;6.74;88.75
73910;BME280;62245;48.070;7.874;2024-02-04T08:12:56;100468.19;;;6.95;87.95
73910;BME280;62245;48.070;7.874;2024-02-04T08:15:22;100466.28;;;7.23;86.82
73910;BME280;62245;48.070;7.874;2024-02-04T08:17:47;100477.53;;;7.60;85.04
73910;BME280;62245;48.070;7.874;2024-02-04T08:20:12;100484.72;;;7.93;83.27
73910;BME280;62245;48.070;7.874;2024-02-04T08:22:38;100478.53;;;8.45;81.30
73910;BME280;62245;48.070;7.874;2024-02-04T08:25:04;100485.28;;;8.73;79.50
73910;BME280;62245;48.070;7.874;2024-02-04T08:27:30;100491.81;;;9.03;77.78
73910;BME280;62245;48.070;7.874;2024-02-04T08:29:56;100492.66;;;9.28;76.43
73910;BME280;62245;48.070;7.874;2024-02-04T08:32:21;100490.16;;;9.18;76.25
73910;BME280;62245;48.070;7.874;2024-02-04T08:34:46;100495.00;;;9.63;75.58
73910;BME280;62245;48.070;7.874;2024-02-04T08:37:12;100513.06;;;10.16;73.91
73910;BME280;62245;48.070;7.874;2024-02-04T08:39:37;100495.56;;;10.14;72.84
73910;BME280;62245;48.070;7.874;2024-02-04T08:42:02;100491.66;;;10.49;71.78
73910;BME280;62245;48.070;7.874;2024-02-04T08:44:28;100472.22;;;10.32;72.35
73910;BME280;62245;48.070;7.874;2024-02-04T08:46:53;100484.44;;;10.57;71.85
73910;BME280;62245;48.070;7.874;2024-02-04T08:49:18;100485.69;;;11.01;70.55
73910;BME280;62245;48.070;7.874;2024-02-04T08:51:44;100473.38;;;11.22;69.18
73910;BME280;62245;48.070;7.874;2024-02-04T08:54:09;100476.66;;;10.79;69.79
73910;BME280;62245;48.070;7.874;2024-02-04T08:56:34;100465.03;;;10.72;69.50
73910;BME280;62245;48.070;7.874;2024-02-04T08:58:59;100471.50;;;10.38;71.13
73910;BME280;62245;48.070;7.874;2024-02-04T09:01:26;100474.47;;;10.51;70.54
73910;BME280;62245;48.070;7.874;2024-02-04T09:03:52;100476.22;;;10.67;70.59
73910;BME280;62245;48.070;7.874;2024-02-04T09:06:18;100467.34;;;10.75;70.11
73910;BME280;62245;48.070;7.874;2024-02-04T09:08:43;100480.72;;;10.98;69.41
73910;BME280;62245;48.070;7.874;2024-02-04T09:11:08;100483.78;;;10.86;69.25
73910;BME280;62245;48.070;7.874;2024-02-04T09:13:34;100473.94;;;10.87;69.09
73910;BME280;62245;48.070;7.874;2024-02-04T09:15:59;100470.28;;;10.88;68.75
73910;BME280;62245;48.070;7.874;2024-02-04T09:18:24;100477.06;;;10.20;70.45
73910;BME280;62245;48.070;7.874;2024-02-04T09:20:50;100478.09;;;10.03;71.78
73910;BME280;62245;48.070;7.874;2024-02-04T09:23:15;100466.00;;;9.84;72.18
73910;BME280;62245;48.070;7.874;2024-02-04T09:25:41;100463.25;;;10.25;71.66
73910;BME280;62245;48.070;7.874;2024-02-04T09:28:06;100463.28;;;10.09;71.84
73910;BME280;62245;48.070;7.874;2024-02-04T09:30:31;100448.81;;;10.42;70.77
73910;BME280;62245;48.070;7.874;2024-02-04T09:32:56;100439.44;;;10.07;72.45
73910;BME280;62245;48.070;7.874;2024-02-04T09:35:22;100434.50;;;10.66;71.09
73910;BME280;62245;48.070;7.874;2024-02-04T09:37:47;100431.00;;;11.34;67.91
73910;BME280;62245;48.070;7.874;2024-02-04T09:40:13;100434.75;;;11.25;67.46
73910;BME280;62245;48.070;7.874;2024-02-04T09:42:38;100423.72;;;10.82;69.59
73910;BME280;62245;48.070;7.874;2024-02-04T09:45:04;100429.19;;;11.12;68.37
73910;BME280;62245;48.070;7.874;2024-02-04T09:47:31;100421.34;;;10.65;70.82
73910;BME280;62245;48.070;7.874;2024-02-04T09:49:57;100417.94;;;10.79;69.74
73910;BME280;62245;48.070;7.874;2024-02-04T09:52:30;100409.09;;;11.01;68.74
73910;BME280;62245;48.070;7.874;2024-02-04T09:55:01;100430.59;;;11.45;67.34
73910;BME280;62245;48.070;7.874;2024-02-04T09:57:29;100421.56;;;11.46;67.52
73910;BME280;62245;48.070;7.874;2024-02-04T09:59:54;100431.84;;;11.34;67.56
73910;BME280;62245;48.070;7.874;2024-02-04T10:02:20;100423.31;;;11.39;67.57
73910;BME280;62245;48.070;7.874;2024-02-04T10:04:46;100431.22;;;10.87;68.57
73910;BME280;62245;48.070;7.874;2024-02-04T10:07:11;100418.94;;;11.01;68.91
73910;BME280;62245;48.070;7.874;2024-02-04T10:09:39;100426.56;;;11.49;67.30
73910;BME280;62245;48.070;7.874;2024-02-04T10:12:05;100434.06;;;11.31;67.73
73910;BME280;62245;48.070;7.874;2024-02-04T10:14:31;100446.34;;;11.78;67.04
73910;BME280;62245;48.070;7.874;2024-02-04T10:16:56;100453.38;;;11.56;67.11
73910;BME280;62245;48.070;7.874;2024-02-04T10:19:24;100460.19;;;12.25;65.28
73910;BME280;62245;48.070;7.874;2024-02-04T10:22:01;100459.78;;;12.94;63.28
73910;BME280;62245;48.070;7.874;2024-02-04T10:24:27;100451.84;;;13.21;62.51
73910;BME280;62245;48.070;7.874;2024-02-04T10:26:54;100453.97;;;12.90;62.51
73910;BME280;62245;48.070;7.874;2024-02-04T10:29:19;100446.50;;;13.07;62.78
73910;BME280;62245;48.070;7.874;2024-02-04T10:31:45;100440.28;;;13.21;62.55
73910;BME280;62245;48.070;7.874;2024-02-04T10:34:10;100444.38;;;13.17;61.87
73910;BME280;62245;48.070;7.874;2024-02-04T10:36:35;100435.09;;;13.41;62.27
73910;BME280;62245;48.070;7.874;2024-02-04T10:39:01;100435.44;;;13.87;59.79
73910;BME280;62245;48.070;7.874;2024-02-04T10:41:29;100441.56;;;13.74;60.73
73910;BME280;62245;48.070;7.874;2024-02-04T10:43:55;100435.38;;;14.08;60.51
73910;BME280;62245;48.070;7.874;2024-02-04T10:46:25;100432.19;;;14.32;59.40
73910;BME280;62245;48.070;7.874;2024-02-04T10:48:55;100413.16;;;14.75;58.41
73910;BME280;62245;48.070;7.874;2024-02-04T10:51:26;100419.41;;;15.08;57.76
73910;BME280;62245;48.070;7.874;2024-02-04T10:53:54;100423.16;;;15.34;57.46
73910;BME280;62245;48.070;7.874;2024-02-04T10:56:30;100411.53;;;15.14;56.87
73910;BME280;62245;48.070;7.874;2024-02-04T10:58:58;100414.91;;;15.55;56.03
73910;BME280;62245;48.070;7.874;2024-02-04T11:01:25;100417.59;;;14.42;58.51
73910;BME280;62245;48.070;7.874;2024-02-04T11:03:52;100404.28;;;12.88;62.26
73910;BME280;62245;48.070;7.874;2024-02-04T11:06:20;100402.81;;;13.49;60.88
73910;BME280;62245;48.070;7.874;2024-02-04T11:08:46;100407.41;;;13.34;61.91
73910;BME280;62245;48.070;7.874;2024-02-04T11:11:12;100420.94;;;14.50;58.34
73910;BME280;62245;48.070;7.874;2024-02-04T11:13:38;100409.63;;;13.09;61.63
73910;BME280;62245;48.070;7.874;2024-02-04T11:16:09;100431.19;;;13.01;62.27
73910;BME280;62245;48.070;7.874;2024-02-04T11:24:43;100400.66;;;16.77;52.77
73910;BME280;62245;48.070;7.874;2024-02-04T11:27:14;100409.50;;;15.68;54.38
73910;BME280;62245;48.070;7.874;2024-02-04T11:29:41;100403.84;;;16.03;53.79
73910;BME280;62245;48.070;7.874;2024-02-04T11:32:06;100402.31;;;18.02;49.71
73910;BME280;62245;48.070;7.874;2024-02-04T11:34:32;100390.53;;;19.81;46.66
73910;BME280;62245;48.070;7.874;2024-02-04T11:36:58;100392.91;;;19.77;45.08
73910;BME280;62245;48.070;7.874;2024-02-04T11:39:24;100388.72;;;20.61;44.07
73910;BME280;62245;48.070;7.874;2024-02-04T11:41:50;100387.09;;;18.56;48.03
73910;BME280;62245;48.070;7.874;2024-02-04T11:44:26;100391.81;;;16.56;51.58
73910;BME280;62245;48.070;7.874;2024-02-04T11:46:52;100391.94;;;17.99;49.51
73910;BME280;62245;48.070;7.874;2024-02-04T11:49:25;100398.16;;;17.56;50.41
73910;BME280;62245;48.070;7.874;2024-02-04T11:51:51;100389.09;;;17.51;51.04
73910;BME280;62245;48.070;7.874;2024-02-04T11:54:17;100397.25;;;16.43;52.46
73910;BME280;62245;48.070;7.874;2024-02-04T11:56:50;100387.78;;;15.70;53.85
73910;BME280;62245;48.070;7.874;2024-02-04T11:59:27;100370.19;;;15.28;55.73
73910;BME280;62245;48.070;7.874;2024-02-04T12:01:55;100360.88;;;14.97;56.96
73910;BME280;62245;48.070;7.874;2024-02-04T12:04:21;100370.66;;;14.38;58.94
73910;BME280;62245;48.070;7.874;2024-02-04T12:06:47;100361.47;;;14.80;57.56
73910;BME280;62245;48.070;7.874;2024-02-04T12:09:16;100353.41;;;14.12;58.53
73910;BME280;62245;48.070;7.874;2024-02-04T12:11:43;100348.09;;;13.78;60.31
73910;BME280;62245;48.070;7.874;2024-02-04T12:14:10;100356.22;;;13.91;60.63
73910;BME280;62245;48.070;7.874;2024-02-04T12:16:35;100360.66;;;13.43;61.46
73910;BME280;62245;48.070;7.874;2024-02-04T12:19:02;100359.50;;;12.81;63.44
73910;BME280;62245;48.070;7.874;2024-02-04T12:21:31;100366.50;;;12.40;65.02
73910;BME280;62245;48.070;7.874;2024-02-04T12:23:58;100359.00;;;11.99;66.88
73910;BME280;62245;48.070;7.874;2024-02-04T12:26:23;100371.00;;;11.74;68.11
73910;BME280;62245;48.070;7.874;2024-02-04T12:28:50;100367.28;;;11.46;69.22
73910;BME280;62245;48.070;7.874;2024-02-04T12:31:19;100351.84;;;11.33;70.32
73910;BME280;62245;48.070;7.874;2024-02-04T12:34:00;100331.31;;;11.19;70.15
73910;BME280;62245;48.070;7.874;2024-02-04T12:36:27;100329.69;;;11.32;70.30
73910;BME280;62245;48.070;7.874;2024-02-04T12:38:53;100327.13;;;11.02;71.09
73910;BME280;62245;48.070;7.874;2024-02-04T12:41:20;100331.34;;;10.96;71.82
73910;BME280;62245;48.070;7.874;2024-02-04T12:43:53;100330.81;;;10.63;72.92
73910;BME280;62245;48.070;7.874;2024-02-04T12:46:19;100328.66;;;10.58;73.72
73910;BME280;62245;48.070;7.874;2024-02-04T12:48:45;100330.72;;;10.48;73.80
73910;BME280;62245;48.070;7.874;2024-02-04T12:51:10;100326.38;;;10.47;73.28
73910;BME280;62245;48.070;7.874;2024-02-04T12:53:37;100319.53;;;10.22;74.18
73910;BME280;62245;48.070;7.874;2024-02-04T12:56:02;100323.09;;;10.06;74.73
73910;BME280;62245;48.070;7.874;2024-02-04T12:58:27;100324.69;;;9.93;75.54